createdAt,value
2023-03-11T00:00:23.892Z,50.908192
2023-03-11T00:01:23.897Z,50.908184
2023-03-11T00:02:23.954Z,50.908146
2023-03-11T00:03:23.858Z,50.908134
2023-03-11T00:04:23.846Z,50.908115
2023-03-11T00:05:23.862Z,50.908127
2023-03-11T00:06:23.865Z,50.908142
2023-03-11T00:07:23.826Z,50.908154
2023-03-11T00:08:23.828Z,50.908165
2023-03-11T00:09:23.818Z,50.908150
2023-03-11T00:10:23.799Z,50.908184
2023-03-11T00:11:24.824Z,50.908173
2023-03-11T00:12:23.800Z,50.908165
2023-03-11T00:13:23.801Z,50.908138
2023-03-11T00:14:23.778Z,50.908161
2023-03-11T00:15:23.765Z,50.908138
2023-03-11T00:16:23.827Z,50.908123
2023-03-11T00:17:23.754Z,50.908180
2023-03-11T00:18:23.750Z,50.908234
2023-03-11T00:19:23.732Z,50.908195
2023-03-11T00:20:23.734Z,50.908154
2023-03-11T00:21:23.752Z,50.907932
2023-03-11T00:22:23.707Z,50.907841
2023-03-11T00:23:23.705Z,50.908005
2023-03-11T00:24:23.695Z,50.907719
2023-03-11T00:25:23.692Z,50.907925
2023-03-11T00:26:23.711Z,50.907986
2023-03-11T00:27:23.669Z,50.908009
2023-03-11T00:28:23.684Z,50.907864
2023-03-11T00:29:23.663Z,50.908012
2023-03-11T00:30:23.663Z,50.908092
2023-03-11T00:31:23.663Z,50.908142
2023-03-11T00:32:23.654Z,50.908138
2023-03-11T00:33:23.623Z,50.908154
2023-03-11T00:34:23.624Z,50.908173
2023-03-11T00:35:23.603Z,50.908127
2023-03-11T00:36:23.618Z,50.908176
2023-03-11T00:37:23.583Z,50.908081
2023-03-11T00:38:23.588Z,50.908081
2023-03-11T00:39:23.564Z,50.908089
2023-03-11T00:40:23.578Z,50.908142
2023-03-11T00:41:23.577Z,50.908192
2023-03-11T00:42:23.546Z,50.908207
2023-03-11T00:43:23.537Z,50.908096
2023-03-11T00:44:23.528Z,50.908108
2023-03-11T00:45:23.518Z,50.908165
2023-03-11T00:46:23.566Z,50.908173
2023-03-11T00:47:23.509Z,50.908199
2023-03-11T00:48:23.498Z,50.908112
2023-03-11T00:49:23.490Z,50.908051
2023-03-11T00:50:23.488Z,50.908127
2023-03-11T00:51:23.500Z,50.908176
2023-03-11T00:52:23.467Z,50.908142
2023-03-11T00:53:23.459Z,50.908146
2023-03-11T00:54:23.448Z,50.908173
2023-03-11T00:55:23.449Z,50.908115
2023-03-11T00:56:23.465Z,50.908134
2023-03-11T00:57:23.423Z,50.908134
2023-03-11T00:58:23.418Z,50.908134
2023-03-11T00:59:23.407Z,50.908169
2023-03-11T01:00:23.392Z,50.908157
2023-03-11T01:01:23.435Z,50.908138
2023-03-11T01:02:23.386Z,50.908215
2023-03-11T01:03:23.380Z,50.908165
2023-03-11T01:04:23.410Z,50.908134
2023-03-11T01:05:23.382Z,50.908150
2023-03-11T01:06:24.583Z,50.908188
2023-03-11T01:07:23.360Z,50.908192
2023-03-11T01:08:23.341Z,50.908161
2023-03-11T01:09:23.330Z,50.908150
2023-03-11T01:10:23.330Z,50.908184
2023-03-11T01:11:23.338Z,50.908203
2023-03-11T01:12:23.302Z,50.908195
2023-03-11T01:13:23.296Z,50.908184
2023-03-11T01:14:23.297Z,50.908195
2023-03-11T01:15:23.293Z,50.908157
2023-03-11T01:16:23.392Z,50.908115
2023-03-11T01:17:23.292Z,50.908108
2023-03-11T01:18:23.258Z,50.908073
2023-03-11T01:19:23.253Z,50.908150
2023-03-11T01:20:23.257Z,50.908112
2023-03-11T01:21:23.273Z,50.908157
2023-03-11T01:22:23.234Z,50.908134
2023-03-11T01:23:23.233Z,50.908169
2023-03-11T01:24:23.209Z,50.908138
2023-03-11T01:25:23.207Z,50.908150
2023-03-11T01:26:23.194Z,50.908157
2023-03-11T01:27:23.219Z,50.908142
2023-03-11T01:28:23.186Z,50.908150
2023-03-11T01:29:23.171Z,50.908157
2023-03-11T01:30:23.167Z,50.908112
2023-03-11T01:31:23.210Z,50.908096
2023-03-11T01:32:23.229Z,50.908108
2023-03-11T01:33:23.150Z,50.908127
2023-03-11T01:34:23.137Z,50.908138
2023-03-11T01:35:23.128Z,50.908104
2023-03-11T01:36:23.125Z,50.908127
2023-03-11T01:37:23.145Z,50.908134
2023-03-11T01:38:23.119Z,50.908127
2023-03-11T01:39:23.106Z,50.908131
2023-03-11T01:40:23.098Z,50.908176
2023-03-11T01:41:23.083Z,50.908253
2023-03-11T01:42:23.108Z,50.908176
2023-03-11T01:43:23.070Z,50.908119
2023-03-11T01:44:23.065Z,50.908138
2023-03-11T01:45:23.047Z,50.908115
2023-03-11T01:46:23.094Z,50.908127
2023-03-11T01:47:23.063Z,50.908218
2023-03-11T01:48:23.034Z,50.908089
2023-03-11T01:49:23.013Z,50.908154
2023-03-11T01:50:23.018Z,50.908108
2023-03-11T01:51:23.015Z,50.908115
2023-03-11T01:52:23.027Z,50.908138
2023-03-11T01:53:22.993Z,50.908150
2023-03-11T01:54:22.987Z,50.908081
2023-03-11T01:55:22.976Z,50.908154
2023-03-11T01:56:22.965Z,50.908298
2023-03-11T01:57:22.983Z,50.908195
2023-03-11T01:58:22.946Z,50.908108
2023-03-11T01:59:22.945Z,50.908146
2023-03-11T02:00:22.923Z,50.908157
2023-03-11T02:01:22.953Z,50.908146
2023-03-11T02:02:22.944Z,50.908165
2023-03-11T02:03:22.907Z,50.908188
2023-03-11T02:04:22.897Z,50.908207
2023-03-11T02:05:22.893Z,50.908203
2023-03-11T02:06:22.899Z,50.908218
2023-03-11T02:07:22.892Z,50.908215
2023-03-11T02:08:22.869Z,50.908249
2023-03-11T02:09:22.860Z,50.908314
2023-03-11T02:10:22.865Z,50.908207
2023-03-11T02:11:22.845Z,50.908154
2023-03-11T02:12:22.864Z,50.908176
2023-03-11T02:13:22.831Z,50.908260
2023-03-11T02:14:22.836Z,50.908287
2023-03-11T02:15:22.821Z,50.908257
2023-03-11T02:16:22.854Z,50.908321
2023-03-11T02:17:22.840Z,50.908325
2023-03-11T02:18:22.799Z,50.908409
2023-03-11T02:19:22.788Z,50.908394
2023-03-11T02:20:22.783Z,50.908398
2023-03-11T02:21:22.776Z,50.908356
2023-03-11T02:22:22.790Z,50.908302
2023-03-11T02:23:22.765Z,50.908302
2023-03-11T02:24:22.750Z,50.908302
2023-03-11T02:25:22.749Z,50.908302
2023-03-11T02:26:22.740Z,50.908302
2023-03-11T02:27:22.759Z,50.908302
2023-03-11T02:28:22.720Z,50.908302
2023-03-11T02:29:22.712Z,50.908825
2023-03-11T02:30:22.707Z,50.908684
2023-03-11T02:31:22.737Z,50.908630
2023-03-11T02:32:22.753Z,50.908577
2023-03-11T02:33:22.684Z,50.908459
2023-03-11T02:34:22.676Z,50.908417
2023-03-11T02:35:22.676Z,50.908363
2023-03-11T02:36:22.667Z,50.908360
2023-03-11T02:37:22.663Z,50.908268
2023-03-11T02:38:22.681Z,50.908203
2023-03-11T02:39:22.641Z,50.908241
2023-03-11T02:40:22.640Z,50.908211
2023-03-11T02:41:22.635Z,50.908081
2023-03-11T02:42:22.631Z,50.908306
2023-03-11T02:43:22.640Z,50.908218
2023-03-11T02:44:22.611Z,50.908188
2023-03-11T02:45:22.599Z,50.908142
2023-03-11T02:46:22.618Z,50.908012
2023-03-11T02:47:22.584Z,50.907936
2023-03-11T02:48:22.601Z,50.908085
2023-03-11T02:49:22.578Z,50.908081
2023-03-11T02:50:22.565Z,50.908272
2023-03-11T02:51:22.552Z,50.908360
2023-03-11T02:52:22.550Z,50.908230
2023-03-11T02:53:22.563Z,50.908142
2023-03-11T02:54:22.548Z,50.908199
2023-03-11T02:55:22.525Z,50.908211
2023-03-11T02:56:22.520Z,50.908146
2023-03-11T02:57:22.519Z,50.908218
2023-03-11T02:58:22.530Z,50.908012
2023-03-11T02:59:22.506Z,50.908031
2023-03-11T03:00:22.488Z,50.908279
2023-03-11T03:01:22.475Z,50.908344
2023-03-11T03:02:22.479Z,50.908195
2023-03-11T03:03:22.484Z,50.908195
2023-03-11T03:04:22.502Z,50.908195
2023-03-11T03:05:22.454Z,50.908195
2023-03-11T03:06:22.462Z,50.908195
2023-03-11T03:07:22.435Z,50.908195
2023-03-11T03:08:22.460Z,50.908195
2023-03-11T03:09:22.426Z,50.908195
2023-03-11T03:10:22.418Z,50.908195
2023-03-11T03:11:22.421Z,50.908195
2023-03-11T03:12:22.398Z,50.908195
2023-03-11T03:13:22.413Z,50.908195
2023-03-11T03:14:22.383Z,50.907719
2023-03-11T03:15:22.380Z,50.907806
2023-03-11T03:16:22.443Z,50.907845
2023-03-11T03:17:22.417Z,50.907944
2023-03-11T03:18:22.382Z,50.908054
2023-03-11T03:19:22.344Z,50.907959
2023-03-11T03:20:22.341Z,50.908020
2023-03-11T03:21:22.332Z,50.908066
2023-03-11T03:22:22.321Z,50.908062
2023-03-11T03:23:22.341Z,50.908062
2023-03-11T03:24:22.307Z,50.908062
2023-03-11T03:25:22.305Z,50.908062
2023-03-11T03:26:22.302Z,50.908062
2023-03-11T03:27:22.288Z,50.908062
2023-03-11T03:28:22.308Z,50.908062
2023-03-11T03:29:22.269Z,50.908062
2023-03-11T03:30:22.263Z,50.908062
2023-03-11T03:31:22.324Z,50.908062
2023-03-11T03:32:22.294Z,50.908062
2023-03-11T03:33:22.257Z,50.908062
2023-03-11T03:34:22.232Z,50.908062
2023-03-11T03:35:22.228Z,50.908062
2023-03-11T03:36:22.218Z,50.908062
2023-03-11T03:37:22.214Z,50.908062
2023-03-11T03:38:22.219Z,50.908062
2023-03-11T03:39:22.195Z,50.908062
2023-03-11T03:40:22.193Z,50.908062
2023-03-11T03:41:22.182Z,50.908062
2023-03-11T03:42:22.183Z,50.908062
2023-03-11T03:43:22.191Z,50.908062
2023-03-11T03:44:22.155Z,50.908062
2023-03-11T03:45:22.155Z,50.908062
2023-03-11T03:46:22.238Z,50.908062
2023-03-11T03:47:22.136Z,50.908062
2023-03-11T03:48:22.150Z,50.908062
2023-03-11T03:49:22.124Z,50.908230
2023-03-11T03:50:22.108Z,50.908230
2023-03-11T03:51:22.099Z,50.908310
2023-03-11T03:52:22.099Z,50.908180
2023-03-11T03:53:22.108Z,50.908146
2023-03-11T03:54:22.074Z,50.908176
2023-03-11T03:55:22.073Z,50.908157
2023-03-11T03:56:22.069Z,50.908157
2023-03-11T03:57:22.054Z,50.908184
2023-03-11T03:58:22.091Z,50.908115
2023-03-11T03:59:22.041Z,50.908165
2023-03-11T04:00:22.027Z,50.908169
2023-03-11T04:01:22.037Z,50.908104
2023-03-11T04:02:22.122Z,50.908192
2023-03-11T04:03:22.062Z,50.908131
2023-03-11T04:04:22.954Z,50.908127
2023-03-11T04:05:22.011Z,50.908108
2023-03-11T04:06:21.995Z,50.908138
2023-03-11T04:07:21.980Z,50.908150
2023-03-11T04:08:21.993Z,50.908115
2023-03-11T04:09:21.973Z,50.908092
2023-03-11T04:10:21.955Z,50.908131
2023-03-11T04:11:21.963Z,50.908173
2023-03-11T04:12:21.944Z,50.908154
2023-03-11T04:13:21.961Z,50.908188
2023-03-11T04:14:21.938Z,50.908176
2023-03-11T04:15:21.918Z,50.908134
2023-03-11T04:16:21.968Z,50.908112
2023-03-11T04:17:21.908Z,50.908127
2023-03-11T04:18:21.926Z,50.908134
2023-03-11T04:19:21.896Z,50.908115
2023-03-11T04:20:21.891Z,50.908142
2023-03-11T04:21:21.910Z,50.908150
2023-03-11T04:22:21.876Z,50.908134
2023-03-11T04:23:21.901Z,50.908154
2023-03-11T04:24:21.860Z,50.908115
2023-03-11T04:25:21.849Z,50.908142
2023-03-11T04:26:21.841Z,50.908142
2023-03-11T04:27:21.845Z,50.908184
2023-03-11T04:28:21.938Z,50.908192
2023-03-11T04:29:21.817Z,50.908131
2023-03-11T04:30:21.812Z,50.908100
2023-03-11T04:31:21.855Z,50.908089
2023-03-11T04:32:21.803Z,50.908104
2023-03-11T04:33:21.812Z,50.908142
2023-03-11T04:34:21.775Z,50.908169
2023-03-11T04:35:21.773Z,50.908131
2023-03-11T04:36:21.764Z,50.908119
2023-03-11T04:37:21.757Z,50.908062
2023-03-11T04:38:21.792Z,50.908104
2023-03-11T04:39:21.750Z,50.908127
2023-03-11T04:40:21.728Z,50.908154
2023-03-11T04:41:21.734Z,50.908119
2023-03-11T04:42:21.734Z,50.908089
2023-03-11T04:43:21.713Z,50.908138
2023-03-11T04:44:21.735Z,50.908123
2023-03-11T04:45:21.698Z,50.908154
2023-03-11T04:46:21.753Z,50.908180
2023-03-11T04:47:21.700Z,50.908173
2023-03-11T04:48:21.709Z,50.908100
2023-03-11T04:49:21.661Z,50.908123
2023-03-11T04:50:21.656Z,50.908089
2023-03-11T04:51:21.663Z,50.908051
2023-03-11T04:52:21.641Z,50.908054
2023-03-11T04:53:21.634Z,50.908047
2023-03-11T04:54:21.649Z,50.908184
2023-03-11T04:55:21.624Z,50.908123
2023-03-11T04:56:21.614Z,50.908157
2023-03-11T04:57:21.614Z,50.908180
2023-03-11T04:58:21.593Z,50.908150
2023-03-11T04:59:21.613Z,50.908173
2023-03-11T05:00:21.581Z,50.908051
2023-03-11T05:01:21.601Z,50.908070
2023-03-11T05:02:21.567Z,50.908051
2023-03-11T05:03:21.676Z,50.908108
2023-03-11T05:04:21.649Z,50.908112
2023-03-11T05:05:21.553Z,50.908028
2023-03-11T05:06:21.549Z,50.907970
2023-03-11T05:07:21.534Z,50.908051
2023-03-11T05:08:21.530Z,50.908169
2023-03-11T05:09:21.549Z,50.908115
2023-03-11T05:10:21.516Z,50.908085
2023-03-11T05:11:21.506Z,50.908176
2023-03-11T05:12:21.494Z,50.908215
2023-03-11T05:13:21.494Z,50.908176
2023-03-11T05:14:21.501Z,50.908066
2023-03-11T05:15:21.473Z,50.908176
2023-03-11T05:16:21.560Z,50.908173
2023-03-11T05:17:21.460Z,50.908150
2023-03-11T05:18:21.447Z,50.908089
2023-03-11T05:19:22.472Z,50.908161
2023-03-11T05:20:21.438Z,50.908180
2023-03-11T05:21:21.432Z,50.908154
2023-03-11T05:22:21.439Z,50.908146
2023-03-11T05:23:21.418Z,50.908134
2023-03-11T05:24:21.442Z,50.908157
2023-03-11T05:25:21.409Z,50.908108
2023-03-11T05:26:21.392Z,50.908104
2023-03-11T05:27:21.451Z,50.908142
2023-03-11T05:28:21.384Z,50.908150
2023-03-11T05:29:21.395Z,50.908138
2023-03-11T05:30:21.392Z,50.908169
2023-03-11T05:31:21.462Z,50.908184
2023-03-11T05:32:21.368Z,50.908173
2023-03-11T05:33:21.338Z,50.908165
2023-03-11T05:34:21.350Z,50.908180
2023-03-11T05:35:21.357Z,50.908180
2023-03-11T05:36:21.317Z,50.908180
2023-03-11T05:37:21.312Z,50.908184
2023-03-11T05:38:21.299Z,50.908211
2023-03-11T05:39:21.322Z,50.908157
2023-03-11T05:40:21.291Z,50.908199
2023-03-11T05:41:21.283Z,50.908199
2023-03-11T05:42:21.624Z,50.908203
2023-03-11T05:43:22.266Z,50.908176
2023-03-11T05:44:21.285Z,50.908188
2023-03-11T05:45:21.254Z,50.908165
2023-03-11T05:46:21.263Z,50.908192
2023-03-11T05:47:21.240Z,50.908173
2023-03-11T05:48:21.234Z,50.908108
2023-03-11T05:49:21.261Z,50.908138
2023-03-11T05:50:21.216Z,50.908123
2023-03-11T05:51:21.213Z,50.908134
2023-03-11T05:52:21.204Z,50.908085
2023-03-11T05:53:21.205Z,50.908028
2023-03-11T05:54:21.210Z,50.908134
2023-03-11T05:55:21.188Z,50.908112
2023-03-11T05:56:21.171Z,50.908127
2023-03-11T05:57:21.169Z,50.908123
2023-03-11T05:58:21.280Z,50.908142
2023-03-11T05:59:21.188Z,50.908150
2023-03-11T06:00:21.146Z,50.908077
2023-03-11T06:01:21.137Z,50.908024
2023-03-11T06:02:21.135Z,50.908089
2023-03-11T06:03:21.127Z,50.908142
2023-03-11T06:04:21.212Z,50.908043
2023-03-11T06:05:21.139Z,50.908070
2023-03-11T06:06:21.106Z,50.908146
2023-03-11T06:07:21.094Z,50.908184
2023-03-11T06:08:21.107Z,50.908085
2023-03-11T06:09:21.104Z,50.908096
2023-03-11T06:10:21.073Z,50.908154
2023-03-11T06:11:21.074Z,50.908077
2023-03-11T06:12:21.057Z,50.908165
2023-03-11T06:13:21.043Z,50.908199
2023-03-11T06:14:21.068Z,50.908077
2023-03-11T06:15:21.037Z,50.908131
2023-03-11T06:16:21.105Z,50.908115
2023-03-11T06:17:21.022Z,50.908073
2023-03-11T06:18:21.010Z,50.908089
2023-03-11T06:19:21.062Z,50.908039
2023-03-11T06:20:20.995Z,50.908016
2023-03-11T06:21:20.993Z,50.908096
2023-03-11T06:22:20.978Z,50.908337
2023-03-11T06:23:20.975Z,50.908169
2023-03-11T06:24:20.991Z,50.908070
2023-03-11T06:25:20.950Z,50.908104
2023-03-11T06:26:20.977Z,50.908222
2023-03-11T06:27:20.947Z,50.908131
2023-03-11T06:28:20.934Z,50.908173
2023-03-11T06:29:20.947Z,50.908157
2023-03-11T06:30:20.920Z,50.908245
2023-03-11T06:31:20.970Z,50.908180
2023-03-11T06:32:20.962Z,50.908154
2023-03-11T06:33:20.895Z,50.908077
2023-03-11T06:34:20.913Z,50.908123
2023-03-11T06:35:20.876Z,50.908131
2023-03-11T06:36:20.889Z,50.908043
2023-03-11T06:37:20.867Z,50.908134
2023-03-11T06:38:20.855Z,50.908115
2023-03-11T06:39:20.911Z,50.908154
2023-03-11T06:40:20.841Z,50.908127
2023-03-11T06:41:20.832Z,50.908096
2023-03-11T06:42:20.822Z,50.908058
2023-03-11T06:43:20.817Z,50.908028
2023-03-11T06:44:20.835Z,50.908054
2023-03-11T06:45:20.916Z,50.907829
2023-03-11T06:46:21.866Z,50.907745
2023-03-11T06:47:20.788Z,50.907745
2023-03-11T06:48:20.774Z,50.907745
2023-03-11T06:49:20.794Z,50.908028
2023-03-11T06:50:20.906Z,50.907986
2023-03-11T06:51:20.751Z,50.908028
2023-03-11T06:52:20.754Z,50.908154
2023-03-11T06:53:20.734Z,50.908207
2023-03-11T06:54:20.904Z,50.908215
2023-03-11T06:55:20.725Z,50.908268
2023-03-11T06:56:20.718Z,50.908268
2023-03-11T06:57:20.712Z,50.908268
2023-03-11T06:58:20.700Z,50.908268
2023-03-11T06:59:20.719Z,50.908268
2023-03-11T07:00:20.684Z,50.908268
2023-03-11T07:01:20.784Z,50.908268
2023-03-11T07:02:20.662Z,50.908268
2023-03-11T07:03:20.660Z,50.908268
2023-03-11T07:04:20.710Z,50.908268
2023-03-11T07:05:20.647Z,50.908268
2023-03-11T07:06:20.635Z,50.908268
2023-03-11T07:07:20.653Z,50.908268
2023-03-11T07:08:20.629Z,50.908268
2023-03-11T07:09:20.639Z,50.908268
2023-03-11T07:10:20.605Z,50.908268
2023-03-11T07:11:20.598Z,50.908268
2023-03-11T07:12:20.591Z,50.908268
2023-03-11T07:13:20.582Z,50.908268
2023-03-11T07:14:20.612Z,50.908100
2023-03-11T07:15:20.579Z,50.908104
2023-03-11T07:16:20.724Z,50.908142
2023-03-11T07:17:20.552Z,50.908142
2023-03-11T07:18:21.098Z,50.908131
2023-03-11T07:19:20.916Z,50.908169
2023-03-11T07:20:20.537Z,50.908157
2023-03-11T07:21:20.560Z,50.908134
2023-03-11T07:22:20.515Z,50.908199
2023-03-11T07:23:20.500Z,50.908165
2023-03-11T07:24:21.019Z,50.908165
2023-03-11T07:25:20.492Z,50.908176
2023-03-11T07:26:20.484Z,50.908161
2023-03-11T07:27:20.881Z,50.908142
2023-03-11T07:28:20.471Z,50.908169
2023-03-11T07:29:21.093Z,50.908146
2023-03-11T07:30:20.703Z,50.908173
2023-03-11T07:31:20.701Z,50.908165
2023-03-11T07:32:20.471Z,50.908150
2023-03-11T07:33:20.809Z,50.908318
2023-03-11T07:34:20.403Z,50.908188
2023-03-11T07:35:21.432Z,50.908173
2023-03-11T07:36:20.400Z,50.908161
2023-03-11T07:37:20.396Z,50.908165
2023-03-11T07:38:20.957Z,50.908169
2023-03-11T07:39:20.386Z,50.908176
2023-03-11T07:40:20.406Z,50.908176
2023-03-11T07:41:20.564Z,50.908161
2023-03-11T07:42:20.694Z,50.908169
2023-03-11T07:43:21.007Z,50.908180
2023-03-11T07:44:20.458Z,50.908150
2023-03-11T07:45:20.364Z,50.908146
2023-03-11T07:46:20.335Z,50.908150
2023-03-11T07:47:20.814Z,50.908188
2023-03-11T07:48:20.673Z,50.908165
2023-03-11T07:49:20.316Z,50.908173
2023-03-11T07:50:20.311Z,50.908157
2023-03-11T07:51:20.299Z,50.908169
2023-03-11T07:52:20.276Z,50.908188
2023-03-11T07:53:20.263Z,50.908169
2023-03-11T07:54:20.262Z,50.908165
2023-03-11T07:55:20.276Z,50.908150
2023-03-11T07:56:20.235Z,50.908142
2023-03-11T07:57:20.234Z,50.908146
2023-03-11T07:58:20.227Z,50.908157
2023-03-11T07:59:20.218Z,50.908131
2023-03-11T08:00:20.237Z,50.908173
2023-03-11T08:01:20.211Z,50.908222
2023-03-11T08:02:20.251Z,50.908165
2023-03-11T08:03:20.234Z,50.908134
2023-03-11T08:04:20.178Z,50.908138
2023-03-11T08:05:20.191Z,50.908134
2023-03-11T08:06:20.169Z,50.908108
2023-03-11T08:07:20.157Z,50.908127
2023-03-11T08:08:20.132Z,50.908112
2023-03-11T08:09:21.144Z,50.908154
2023-03-11T08:10:20.157Z,50.908146
2023-03-11T08:11:20.129Z,50.908150
2023-03-11T08:12:20.112Z,50.908146
2023-03-11T08:13:20.104Z,50.908119
2023-03-11T08:14:20.099Z,50.908123
2023-03-11T08:15:20.117Z,50.908165
2023-03-11T08:16:20.084Z,50.908142
2023-03-11T08:17:20.076Z,50.908157
2023-03-11T08:18:20.067Z,50.908188
2023-03-11T08:19:20.055Z,50.908176
2023-03-11T08:20:20.077Z,50.908176
2023-03-11T08:21:20.038Z,50.908134
2023-03-11T08:22:20.037Z,50.908134
2023-03-11T08:23:20.028Z,50.908127
2023-03-11T08:24:20.033Z,50.908154
2023-03-11T08:25:20.038Z,50.908157
2023-03-11T08:26:20.000Z,50.908165
2023-03-11T08:27:19.999Z,50.908199
2023-03-11T08:28:19.995Z,50.908161
2023-03-11T08:29:19.985Z,50.908154
2023-03-11T08:30:19.998Z,50.908154
2023-03-11T08:31:20.025Z,50.908070
2023-03-11T08:32:19.982Z,50.908161
2023-03-11T08:33:19.947Z,50.908173
2023-03-11T08:34:19.945Z,50.908211
2023-03-11T08:35:19.954Z,50.908184
2023-03-11T08:36:19.918Z,50.908180
2023-03-11T08:37:19.916Z,50.908142
2023-03-11T08:38:19.912Z,50.908134
2023-03-11T08:39:19.914Z,50.908123
2023-03-11T08:40:19.923Z,50.908142
2023-03-11T08:41:19.876Z,50.908169
2023-03-11T08:42:19.867Z,50.908127
2023-03-11T08:43:19.864Z,50.908115
2023-03-11T08:44:19.853Z,50.908146
2023-03-11T08:45:19.878Z,50.908169
2023-03-11T08:46:19.937Z,50.908165
2023-03-11T08:47:19.840Z,50.908173
2023-03-11T08:48:19.826Z,50.908161
2023-03-11T08:49:19.815Z,50.908157
2023-03-11T08:50:19.834Z,50.908184
2023-03-11T08:51:19.802Z,50.908180
2023-03-11T08:52:19.792Z,50.908207
2023-03-11T08:53:19.787Z,50.908146
2023-03-11T08:54:19.776Z,50.908169
2023-03-11T08:55:19.791Z,50.908169
2023-03-11T08:56:19.783Z,50.908142
2023-03-11T08:57:19.752Z,50.908119
2023-03-11T08:58:19.748Z,50.908142
2023-03-11T08:59:19.731Z,50.908176
2023-03-11T09:00:19.747Z,50.908188
2023-03-11T09:01:19.721Z,50.908123
2023-03-11T09:02:19.741Z,50.908119
2023-03-11T09:03:19.708Z,50.908100
2023-03-11T09:04:19.701Z,50.908131
2023-03-11T09:05:19.711Z,50.908123
2023-03-11T09:06:19.676Z,50.908119
2023-03-11T09:07:19.676Z,50.908142
2023-03-11T09:08:19.665Z,50.908077
2023-03-11T09:09:19.654Z,50.908112
2023-03-11T09:10:19.681Z,50.908108
2023-03-11T09:11:19.645Z,50.908073
2023-03-11T09:12:19.633Z,50.908051
2023-03-11T09:13:19.623Z,50.908070
2023-03-11T09:14:19.626Z,50.908096
2023-03-11T09:15:19.636Z,50.908096
2023-03-11T09:16:19.717Z,50.908134
2023-03-11T09:17:19.591Z,50.908127
2023-03-11T09:18:19.589Z,50.908096
2023-03-11T09:19:19.584Z,50.908085
2023-03-11T09:20:19.607Z,50.907997
2023-03-11T09:21:19.598Z,50.908058
2023-03-11T09:22:19.564Z,50.908062
2023-03-11T09:23:19.558Z,50.908096
2023-03-11T09:24:19.548Z,50.908028
2023-03-11T09:25:19.558Z,50.908108
2023-03-11T09:26:19.526Z,50.908081
2023-03-11T09:27:19.516Z,50.908077
2023-03-11T09:28:19.517Z,50.908108
2023-03-11T09:29:19.508Z,50.908089
2023-03-11T09:30:19.520Z,50.908043
2023-03-11T09:31:19.568Z,50.908054
2023-03-11T09:32:19.506Z,50.908047
2023-03-11T09:33:19.478Z,50.908054
2023-03-11T09:34:19.471Z,50.908070
2023-03-11T09:35:19.504Z,50.908062
2023-03-11T09:36:19.456Z,50.908081
2023-03-11T09:37:19.451Z,50.908073
2023-03-11T09:38:19.424Z,50.908058
2023-03-11T09:39:20.423Z,50.908047
2023-03-11T09:40:19.462Z,50.908047
2023-03-11T09:41:19.412Z,50.908127
2023-03-11T09:42:19.396Z,50.908043
2023-03-11T09:43:20.389Z,50.908031
2023-03-11T09:44:19.395Z,50.908138
2023-03-11T09:45:19.402Z,50.908184
2023-03-11T09:46:20.382Z,50.908169
2023-03-11T09:47:19.362Z,50.908173
2023-03-11T09:48:21.761Z,50.908211
2023-03-11T09:49:19.346Z,50.908195
2023-03-11T09:50:19.362Z,50.908131
2023-03-11T09:51:19.332Z,50.908173
2023-03-11T09:52:19.319Z,50.908161
2023-03-11T09:53:19.322Z,50.908218
2023-03-11T09:54:19.303Z,50.908207
2023-03-11T09:55:19.320Z,50.908188
2023-03-11T09:56:19.297Z,50.908176
2023-03-11T09:57:19.299Z,50.908173
2023-03-11T09:58:19.276Z,50.908176
2023-03-11T09:59:19.275Z,50.908176
2023-03-11T10:00:19.291Z,50.908173
2023-03-11T10:01:19.249Z,50.908154
2023-03-11T10:02:19.364Z,50.908134
2023-03-11T10:03:19.294Z,50.908150
2023-03-11T10:04:19.218Z,50.908157
2023-03-11T10:05:20.266Z,50.908127
2023-03-11T10:06:19.212Z,50.908131
2023-03-11T10:07:19.202Z,50.908138
2023-03-11T10:08:19.195Z,50.908119
2023-03-11T10:09:19.191Z,50.908142
2023-03-11T10:10:19.199Z,50.908138
2023-03-11T10:11:19.193Z,50.908161
2023-03-11T10:12:19.192Z,50.908203
2023-03-11T10:13:19.167Z,50.908154
2023-03-11T10:14:19.151Z,50.908161
2023-03-11T10:15:19.142Z,50.908165
2023-03-11T10:16:19.230Z,50.908123
2023-03-11T10:17:19.131Z,50.908131
2023-03-11T10:18:19.123Z,50.908154
2023-03-11T10:19:19.100Z,50.908180
2023-03-11T10:20:19.108Z,50.908165
2023-03-11T10:21:19.123Z,50.908157
2023-03-11T10:22:19.087Z,50.908138
2023-03-11T10:23:19.089Z,50.908138
2023-03-11T10:24:19.093Z,50.908154
2023-03-11T10:25:19.062Z,50.908173
2023-03-11T10:26:19.082Z,50.908157
2023-03-11T10:27:19.048Z,50.908161
2023-03-11T10:28:19.041Z,50.908161
2023-03-11T10:29:19.031Z,50.908150
2023-03-11T10:30:19.023Z,50.908157
2023-03-11T10:31:19.168Z,50.908173
2023-03-11T10:32:19.048Z,50.908215
2023-03-11T10:33:19.010Z,50.908161
2023-03-11T10:34:18.990Z,50.908154
2023-03-11T10:35:18.990Z,50.908146
2023-03-11T10:36:19.002Z,50.908123
2023-03-11T10:37:18.966Z,50.908108
2023-03-11T10:38:18.960Z,50.908134
2023-03-11T10:39:18.948Z,50.908138
2023-03-11T10:40:18.937Z,50.908157
2023-03-11T10:41:18.961Z,50.908161
2023-03-11T10:42:18.936Z,50.908134
2023-03-11T10:43:18.920Z,50.908142
2023-03-11T10:44:18.916Z,50.908089
2023-03-11T10:45:18.902Z,50.908115
2023-03-11T10:46:19.000Z,50.908123
2023-03-11T10:47:18.897Z,50.908131
2023-03-11T10:48:18.875Z,50.908127
2023-03-11T10:49:18.897Z,50.908150
2023-03-11T10:50:18.882Z,50.908115
2023-03-11T10:51:18.878Z,50.908146
2023-03-11T10:52:18.855Z,50.908161
2023-03-11T10:53:18.841Z,50.908157
2023-03-11T10:54:18.837Z,50.908115
2023-03-11T10:55:18.823Z,50.908112
2023-03-11T10:56:18.845Z,50.908134
2023-03-11T10:57:18.804Z,50.908112
2023-03-11T10:58:18.796Z,50.908115
2023-03-11T10:59:18.799Z,50.908115
2023-03-11T11:00:18.879Z,50.908146
2023-03-11T11:01:18.870Z,50.908138
2023-03-11T11:02:18.771Z,50.908142
2023-03-11T11:03:18.764Z,50.908127
2023-03-11T11:04:18.787Z,50.908089
2023-03-11T11:05:18.774Z,50.908127
2023-03-11T11:06:18.766Z,50.908146
2023-03-11T11:07:18.742Z,50.908161
2023-03-11T11:08:18.734Z,50.908154
2023-03-11T11:09:18.714Z,50.908150
2023-03-11T11:10:18.760Z,50.908165
2023-03-11T11:11:18.726Z,50.908112
2023-03-11T11:12:18.700Z,50.908165
2023-03-11T11:13:18.693Z,50.908146
2023-03-11T11:14:18.680Z,50.908188
2023-03-11T11:15:18.669Z,50.908161
2023-03-11T11:16:18.860Z,50.908173
2023-03-11T11:17:18.676Z,50.908176
2023-03-11T11:18:18.643Z,50.908176
2023-03-11T11:19:18.765Z,50.908199
2023-03-11T11:20:18.655Z,50.908340
2023-03-11T11:21:18.650Z,50.908157
2023-03-11T11:22:18.614Z,50.908195
2023-03-11T11:23:18.608Z,50.908188
2023-03-11T11:24:18.600Z,50.908173